Terminal Aerodrome Forecast
Issued by NWS

Home | Current Version | Previous Version | Text Only | Print | Product List | Glossary On
Versions: 1 2 3 4 5 6 7 8 9 10 11 12 13 14 15 16 17 18 19 20 21 22
000
FTUS41 KPBZ 012335
TAFLBE
TAF
KLBE 012335Z 0200/0224 VRB04KT P6SM VCTS SCT045CB BKN090
     FM020200 VRB04KT P6SM BKN090
     FM020800 VRB04KT 6SM -SHRA OVC035
     FM021000 20006KT 5SM -SHRA OVC010
     FM021500 26010KT P6SM BKN040
     FM021800 30010KT P6SM BKN050=

USA.gov is the U.S. government's official web portal to all federal, state and local government web resources and services.